sensor_id;sensor_type;location;lat;lon;timestamp;P1;durP1;ratioP1;P2;durP2;ratioP2
11655;SDS011;5884;43.618;1.438;2023-05-07T04:47:38;9.63;;;3.40;;
11655;SDS011;5884;43.618;1.438;2023-05-07T04:50:06;11.70;;;3.60;;
11655;SDS011;5884;43.618;1.438;2023-05-07T04:52:35;12.30;;;3.53;;
11655;SDS011;5884;43.618;1.438;2023-05-07T04:55:03;13.40;;;3.77;;
11655;SDS011;5884;43.618;1.438;2023-05-07T04:57:31;10.60;;;3.63;;
11655;SDS011;5884;43.618;1.438;2023-05-07T04:59:58;13.83;;;3.93;;
11655;SDS011;5884;43.618;1.438;2023-05-07T05:02:25;13.03;;;3.70;;
11655;SDS011;5884;43.618;1.438;2023-05-07T05:04:54;13.10;;;3.87;;
11655;SDS011;5884;43.618;1.438;2023-05-07T05:07:21;11.17;;;3.63;;
11655;SDS011;5884;43.618;1.438;2023-05-07T05:09:48;12.37;;;3.60;;
11655;SDS011;5884;43.618;1.438;2023-05-07T05:12:15;8.83;;;3.50;;
11655;SDS011;5884;43.618;1.438;2023-05-07T05:14:42;8.40;;;3.37;;
11655;SDS011;5884;43.618;1.438;2023-05-07T05:17:09;8.77;;;2.93;;
11655;SDS011;5884;43.618;1.438;2023-05-07T05:19:37;12.13;;;4.20;;
11655;SDS011;5884;43.618;1.438;2023-05-07T05:22:05;12.53;;;3.83;;
11655;SDS011;5884;43.618;1.438;2023-05-07T05:24:32;11.43;;;3.67;;
11655;SDS011;5884;43.618;1.438;2023-05-07T05:26:59;12.50;;;3.70;;
11655;SDS011;5884;43.618;1.438;2023-05-07T05:29:27;14.33;;;4.03;;
11655;SDS011;5884;43.618;1.438;2023-05-07T05:31:56;14.77;;;4.37;;
11655;SDS011;5884;43.618;1.438;2023-05-07T05:34:23;13.10;;;4.17;;
11655;SDS011;5884;43.618;1.438;2023-05-07T05:36:51;9.40;;;3.30;;
11655;SDS011;5884;43.618;1.438;2023-05-07T05:39:19;15.77;;;4.03;;
11655;SDS011;5884;43.618;1.438;2023-05-07T05:41:48;15.63;;;3.73;;
11655;SDS011;5884;43.618;1.438;2023-05-07T05:44:15;12.37;;;3.70;;
11655;SDS011;5884;43.618;1.438;2023-05-07T05:46:42;15.07;;;3.47;;
11655;SDS011;5884;43.618;1.438;2023-05-07T05:49:09;13.33;;;4.00;;
11655;SDS011;5884;43.618;1.438;2023-05-07T05:51:37;12.67;;;3.93;;
11655;SDS011;5884;43.618;1.438;2023-05-07T05:54:04;12.87;;;4.67;;
11655;SDS011;5884;43.618;1.438;2023-05-07T05:56:32;11.17;;;3.93;;
11655;SDS011;5884;43.618;1.438;2023-05-07T05:59:00;11.00;;;3.80;;
11655;SDS011;5884;43.618;1.438;2023-05-07T06:01:27;13.50;;;4.73;;
11655;SDS011;5884;43.618;1.438;2023-05-07T06:03:54;13.73;;;3.93;;
11655;SDS011;5884;43.618;1.438;2023-05-07T06:06:22;12.60;;;3.83;;
11655;SDS011;5884;43.618;1.438;2023-05-07T06:08:49;10.93;;;3.90;;
11655;SDS011;5884;43.618;1.438;2023-05-07T06:11:16;12.17;;;3.97;;
11655;SDS011;5884;43.618;1.438;2023-05-07T06:13:45;11.13;;;3.73;;
11655;SDS011;5884;43.618;1.438;2023-05-07T06:16:12;11.73;;;4.17;;
11655;SDS011;5884;43.618;1.438;2023-05-07T06:18:40;14.13;;;4.20;;
11655;SDS011;5884;43.618;1.438;2023-05-07T06:21:07;12.70;;;4.33;;
11655;SDS011;5884;43.618;1.438;2023-05-07T06:23:35;11.23;;;3.60;;
11655;SDS011;5884;43.618;1.438;2023-05-07T06:26:03;13.67;;;3.50;;
11655;SDS011;5884;43.618;1.438;2023-05-07T06:28:30;15.27;;;4.00;;
11655;SDS011;5884;43.618;1.438;2023-05-07T06:31:11;12.90;;;4.13;;
11655;SDS011;5884;43.618;1.438;2023-05-07T06:33:40;8.13;;;4.00;;
11655;SDS011;5884;43.618;1.438;2023-05-07T06:36:07;12.03;;;3.70;;
11655;SDS011;5884;43.618;1.438;2023-05-07T06:38:35;14.57;;;3.90;;
11655;SDS011;5884;43.618;1.438;2023-05-07T06:41:02;9.23;;;3.40;;
11655;SDS011;5884;43.618;1.438;2023-05-07T06:43:29;13.50;;;4.43;;
11655;SDS011;5884;43.618;1.438;2023-05-07T06:45:56;13.33;;;3.97;;
11655;SDS011;5884;43.618;1.438;2023-05-07T06:48:25;12.20;;;4.07;;
11655;SDS011;5884;43.618;1.438;2023-05-07T06:50:52;12.50;;;3.67;;
11655;SDS011;5884;43.618;1.438;2023-05-07T06:53:20;11.80;;;3.73;;
11655;SDS011;5884;43.618;1.438;2023-05-07T06:55:48;14.50;;;4.17;;
11655;SDS011;5884;43.618;1.438;2023-05-07T06:58:15;11.33;;;3.90;;
11655;SDS011;5884;43.618;1.438;2023-05-07T07:00:42;13.50;;;3.90;;
11655;SDS011;5884;43.618;1.438;2023-05-07T07:03:10;15.83;;;3.80;;
11655;SDS011;5884;43.618;1.438;2023-05-07T07:05:39;12.80;;;3.53;;
11655;SDS011;5884;43.618;1.438;2023-05-07T07:08:07;10.70;;;3.70;;
11655;SDS011;5884;43.618;1.438;2023-05-07T07:10:34;13.27;;;3.90;;
11655;SDS011;5884;43.618;1.438;2023-05-07T07:13:01;13.73;;;4.20;;
11655;SDS011;5884;43.618;1.438;2023-05-07T07:15:29;9.10;;;3.80;;
11655;SDS011;5884;43.618;1.438;2023-05-07T07:17:56;13.43;;;3.90;;
11655;SDS011;5884;43.618;1.438;2023-05-07T07:20:23;13.83;;;3.93;;
11655;SDS011;5884;43.618;1.438;2023-05-07T07:22:51;13.30;;;4.43;;
11655;SDS011;5884;43.618;1.438;2023-05-07T07:25:19;13.63;;;4.17;;
11655;SDS011;5884;43.618;1.438;2023-05-07T07:27:46;10.83;;;3.73;;
11655;SDS011;5884;43.618;1.438;2023-05-07T07:30:13;11.67;;;3.70;;
11655;SDS011;5884;43.618;1.438;2023-05-07T07:32:40;12.93;;;4.07;;
11655;SDS011;5884;43.618;1.438;2023-05-07T07:35:08;17.17;;;4.57;;
11655;SDS011;5884;43.618;1.438;2023-05-07T07:37:36;13.37;;;4.03;;
11655;SDS011;5884;43.618;1.438;2023-05-07T07:40:05;14.50;;;4.53;;
11655;SDS011;5884;43.618;1.438;2023-05-07T07:42:33;15.57;;;4.17;;
11655;SDS011;5884;43.618;1.438;2023-05-07T07:45:01;13.20;;;4.00;;
11655;SDS011;5884;43.618;1.438;2023-05-07T07:47:28;13.33;;;4.03;;
11655;SDS011;5884;43.618;1.438;2023-05-07T07:49:55;16.07;;;4.47;;
11655;SDS011;5884;43.618;1.438;2023-05-07T07:52:22;17.53;;;3.93;;
11655;SDS011;5884;43.618;1.438;2023-05-07T07:54:50;13.60;;;3.50;;
11655;SDS011;5884;43.618;1.438;2023-05-07T07:57:18;11.13;;;4.20;;
11655;SDS011;5884;43.618;1.438;2023-05-07T07:59:45;10.87;;;3.60;;
11655;SDS011;5884;43.618;1.438;2023-05-07T08:02:13;11.33;;;4.13;;
11655;SDS011;5884;43.618;1.438;2023-05-07T08:04:40;13.07;;;4.10;;
11655;SDS011;5884;43.618;1.438;2023-05-07T08:07:08;15.10;;;3.80;;
11655;SDS011;5884;43.618;1.438;2023-05-07T08:09:37;13.30;;;3.90;;
11655;SDS011;5884;43.618;1.438;2023-05-07T08:12:05;12.47;;;4.10;;
11655;SDS011;5884;43.618;1.438;2023-05-07T08:14:34;15.83;;;3.90;;
11655;SDS011;5884;43.618;1.438;2023-05-07T08:17:02;11.47;;;3.90;;
11655;SDS011;5884;43.618;1.438;2023-05-07T08:19:29;13.67;;;3.87;;
11655;SDS011;5884;43.618;1.438;2023-05-07T08:21:56;16.20;;;3.80;;
11655;SDS011;5884;43.618;1.438;2023-05-07T08:24:23;11.90;;;3.60;;
11655;SDS011;5884;43.618;1.438;2023-05-07T08:26:50;10.57;;;3.47;;
11655;SDS011;5884;43.618;1.438;2023-05-07T08:29:18;12.70;;;3.27;;
11655;SDS011;5884;43.618;1.438;2023-05-07T08:31:46;13.63;;;3.60;;
11655;SDS011;5884;43.618;1.438;2023-05-07T08:34:13;11.50;;;3.90;;
11655;SDS011;5884;43.618;1.438;2023-05-07T08:36:41;15.87;;;3.70;;
11655;SDS011;5884;43.618;1.438;2023-05-07T08:39:08;9.43;;;3.47;;
11655;SDS011;5884;43.618;1.438;2023-05-07T08:41:35;11.13;;;3.33;;
11655;SDS011;5884;43.618;1.438;2023-05-07T08:44:02;10.50;;;3.47;;
11655;SDS011;5884;43.618;1.438;2023-05-07T08:46:33;12.40;;;4.50;;
11655;SDS011;5884;43.618;1.438;2023-05-07T08:49:02;15.50;;;3.37;;
11655;SDS011;5884;43.618;1.438;2023-05-07T08:51:30;12.43;;;3.30;;
11655;SDS011;5884;43.618;1.438;2023-05-07T08:53:57;10.40;;;3.47;;
11655;SDS011;5884;43.618;1.438;2023-05-07T08:56:25;14.47;;;3.37;;
11655;SDS011;5884;43.618;1.438;2023-05-07T08:58:53;10.90;;;3.47;;
11655;SDS011;5884;43.618;1.438;2023-05-07T09:01:21;11.80;;;3.60;;
11655;SDS011;5884;43.618;1.438;2023-05-07T09:03:49;14.07;;;4.13;;
11655;SDS011;5884;43.618;1.438;2023-05-07T09:06:18;14.03;;;3.50;;
11655;SDS011;5884;43.618;1.438;2023-05-07T09:08:48;12.80;;;3.77;;
11655;SDS011;5884;43.618;1.438;2023-05-07T09:11:19;12.30;;;3.30;;
11655;SDS011;5884;43.618;1.438;2023-05-07T09:13:47;11.40;;;3.07;;
11655;SDS011;5884;43.618;1.438;2023-05-07T09:16:15;8.93;;;3.60;;
11655;SDS011;5884;43.618;1.438;2023-05-07T09:18:43;10.77;;;3.40;;
11655;SDS011;5884;43.618;1.438;2023-05-07T09:21:12;14.50;;;3.90;;
11655;SDS011;5884;43.618;1.438;2023-05-07T09:23:43;11.67;;;3.40;;
11655;SDS011;5884;43.618;1.438;2023-05-07T09:26:10;12.60;;;3.50;;
11655;SDS011;5884;43.618;1.438;2023-05-07T09:28:38;10.63;;;3.23;;
11655;SDS011;5884;43.618;1.438;2023-05-07T09:31:06;13.93;;;3.80;;
11655;SDS011;5884;43.618;1.438;2023-05-07T09:33:34;13.33;;;3.90;;
11655;SDS011;5884;43.618;1.438;2023-05-07T09:36:02;11.20;;;3.67;;
11655;SDS011;5884;43.618;1.438;2023-05-07T09:38:30;12.10;;;3.00;;
11655;SDS011;5884;43.618;1.438;2023-05-07T09:41:02;9.33;;;3.10;;
11655;SDS011;5884;43.618;1.438;2023-05-07T09:43:31;11.73;;;3.93;;
11655;SDS011;5884;43.618;1.438;2023-05-07T09:46:02;12.13;;;3.73;;
11655;SDS011;5884;43.618;1.438;2023-05-07T09:48:34;13.03;;;3.97;;
11655;SDS011;5884;43.618;1.438;2023-05-07T09:51:06;15.10;;;3.63;;
11655;SDS011;5884;43.618;1.438;2023-05-07T09:53:45;12.50;;;3.90;;
11655;SDS011;5884;43.618;1.438;2023-05-07T09:56:14;10.97;;;3.47;;
11655;SDS011;5884;43.618;1.438;2023-05-07T09:58:43;13.90;;;3.70;;
11655;SDS011;5884;43.618;1.438;2023-05-07T10:01:11;11.67;;;3.37;;
11655;SDS011;5884;43.618;1.438;2023-05-07T10:03:39;12.60;;;3.40;;
11655;SDS011;5884;43.618;1.438;2023-05-07T10:06:08;13.60;;;4.17;;
11655;SDS011;5884;43.618;1.438;2023-05-07T10:08:36;12.77;;;3.77;;
11655;SDS011;5884;43.618;1.438;2023-05-07T10:11:04;15.40;;;4.07;;
11655;SDS011;5884;43.618;1.438;2023-05-07T10:13:33;12.93;;;3.67;;
11655;SDS011;5884;43.618;1.438;2023-05-07T10:16:03;16.03;;;3.67;;
11655;SDS011;5884;43.618;1.438;2023-05-07T10:18:31;13.63;;;4.00;;
11655;SDS011;5884;43.618;1.438;2023-05-07T10:21:02;13.87;;;3.87;;
11655;SDS011;5884;43.618;1.438;2023-05-07T10:23:34;14.90;;;4.53;;
11655;SDS011;5884;43.618;1.438;2023-05-07T10:26:03;8.97;;;3.40;;
11655;SDS011;5884;43.618;1.438;2023-05-07T10:28:37;10.47;;;4.07;;
11655;SDS011;5884;43.618;1.438;2023-05-07T10:31:11;12.10;;;4.30;;
11655;SDS011;5884;43.618;1.438;2023-05-07T10:33:57;12.97;;;4.17;;
11655;SDS011;5884;43.618;1.438;2023-05-07T10:36:27;13.13;;;3.80;;
11655;SDS011;5884;43.618;1.438;2023-05-07T10:38:54;12.13;;;4.07;;
11655;SDS011;5884;43.618;1.438;2023-05-07T10:41:22;13.10;;;4.07;;
11655;SDS011;5884;43.618;1.438;2023-05-07T10:43:50;12.30;;;4.20;;
11655;SDS011;5884;43.618;1.438;2023-05-07T10:46:18;11.10;;;3.63;;
11655;SDS011;5884;43.618;1.438;2023-05-07T10:51:36;8.73;;;3.47;;
11655;SDS011;5884;43.618;1.438;2023-05-07T10:54:20;12.67;;;3.53;;
11655;SDS011;5884;43.618;1.438;2023-05-07T10:56:48;10.70;;;3.50;;
11655;SDS011;5884;43.618;1.438;2023-05-07T10:59:36;11.37;;;3.30;;
11655;SDS011;5884;43.618;1.438;2023-05-07T11:02:09;12.13;;;3.90;;
11655;SDS011;5884;43.618;1.438;2023-05-07T11:04:39;10.30;;;3.50;;
11655;SDS011;5884;43.618;1.438;2023-05-07T11:07:18;14.37;;;3.67;;
11655;SDS011;5884;43.618;1.438;2023-05-07T11:09:58;14.10;;;3.80;;
11655;SDS011;5884;43.618;1.438;2023-05-07T11:15:43;14.90;;;4.33;;
11655;SDS011;5884;43.618;1.438;2023-05-07T11:18:12;12.37;;;3.33;;
11655;SDS011;5884;43.618;1.438;2023-05-07T11:20:44;10.27;;;3.53;;
11655;SDS011;5884;43.618;1.438;2023-05-07T11:26:24;8.57;;;3.10;;
11655;SDS011;5884;43.618;1.438;2023-05-07T11:28:52;11.23;;;3.77;;
11655;SDS011;5884;43.618;1.438;2023-05-07T11:31:22;10.87;;;3.37;;
11655;SDS011;5884;43.618;1.438;2023-05-07T11:33:52;12.60;;;3.90;;
11655;SDS011;5884;43.618;1.438;2023-05-07T11:36:21;9.63;;;3.10;;
11655;SDS011;5884;43.618;1.438;2023-05-07T11:38:50;10.33;;;2.93;;
11655;SDS011;5884;43.618;1.438;2023-05-07T11:41:17;8.50;;;2.90;;
11655;SDS011;5884;43.618;1.438;2023-05-07T11:43:58;15.13;;;3.33;;
11655;SDS011;5884;43.618;1.438;2023-05-07T11:46:28;11.83;;;3.17;;
11655;SDS011;5884;43.618;1.438;2023-05-07T11:48:55;11.03;;;3.33;;
11655;SDS011;5884;43.618;1.438;2023-05-07T11:51:23;10.77;;;3.40;;
11655;SDS011;5884;43.618;1.438;2023-05-07T11:53:55;11.10;;;3.37;;
11655;SDS011;5884;43.618;1.438;2023-05-07T11:56:22;11.90;;;3.40;;
11655;SDS011;5884;43.618;1.438;2023-05-07T11:58:49;12.70;;;3.20;;
11655;SDS011;5884;43.618;1.438;2023-05-07T12:01:17;9.80;;;2.87;;
11655;SDS011;5884;43.618;1.438;2023-05-07T12:03:45;8.90;;;2.97;;
11655;SDS011;5884;43.618;1.438;2023-05-07T12:06:14;10.57;;;3.20;;
11655;SDS011;5884;43.618;1.438;2023-05-07T12:08:42;7.83;;;3.23;;
11655;SDS011;5884;43.618;1.438;2023-05-07T12:11:13;8.70;;;2.87;;
11655;SDS011;5884;43.618;1.438;2023-05-07T12:13:43;9.60;;;3.23;;
11655;SDS011;5884;43.618;1.438;2023-05-07T12:16:10;10.43;;;2.30;;
11655;SDS011;5884;43.618;1.438;2023-05-07T12:18:38;9.23;;;2.43;;
11655;SDS011;5884;43.618;1.438;2023-05-07T12:21:08;7.27;;;2.80;;
11655;SDS011;5884;43.618;1.438;2023-05-07T12:23:36;8.83;;;3.33;;
11655;SDS011;5884;43.618;1.438;2023-05-07T12:26:03;8.10;;;2.90;;
11655;SDS011;5884;43.618;1.438;2023-05-07T12:28:31;9.30;;;3.37;;
11655;SDS011;5884;43.618;1.438;2023-05-07T12:31:04;9.37;;;2.47;;
11655;SDS011;5884;43.618;1.438;2023-05-07T12:33:32;9.20;;;3.37;;
11655;SDS011;5884;43.618;1.438;2023-05-07T12:36:02;11.07;;;4.53;;
11655;SDS011;5884;43.618;1.438;2023-05-07T12:38:38;13.47;;;4.97;;
11655;SDS011;5884;43.618;1.438;2023-05-07T12:41:06;9.17;;;3.13;;
11655;SDS011;5884;43.618;1.438;2023-05-07T12:43:35;8.20;;;2.63;;
11655;SDS011;5884;43.618;1.438;2023-05-07T12:46:04;8.77;;;2.67;;
11655;SDS011;5884;43.618;1.438;2023-05-07T12:48:32;6.83;;;2.23;;
11655;SDS011;5884;43.618;1.438;2023-05-07T12:51:01;8.53;;;2.60;;
11655;SDS011;5884;43.618;1.438;2023-05-07T12:53:29;7.13;;;2.50;;
11655;SDS011;5884;43.618;1.438;2023-05-07T12:55:58;7.67;;;2.33;;
11655;SDS011;5884;43.618;1.438;2023-05-07T12:58:26;6.23;;;2.23;;
11655;SDS011;5884;43.618;1.438;2023-05-07T13:00:56;9.23;;;2.37;;
11655;SDS011;5884;43.618;1.438;2023-05-07T13:03:26;10.37;;;2.70;;
11655;SDS011;5884;43.618;1.438;2023-05-07T13:05:55;9.67;;;2.47;;
11655;SDS011;5884;43.618;1.438;2023-05-07T13:08:26;9.20;;;2.33;;
11655;SDS011;5884;43.618;1.438;2023-05-07T13:10:56;8.07;;;2.60;;
11655;SDS011;5884;43.618;1.438;2023-05-07T13:13:28;7.33;;;2.53;;
11655;SDS011;5884;43.618;1.438;2023-05-07T13:15:56;7.23;;;2.07;;
11655;SDS011;5884;43.618;1.438;2023-05-07T13:18:24;8.87;;;2.30;;
11655;SDS011;5884;43.618;1.438;2023-05-07T13:20:52;6.80;;;2.37;;
11655;SDS011;5884;43.618;1.438;2023-05-07T13:23:19;7.83;;;2.13;;
11655;SDS011;5884;43.618;1.438;2023-05-07T13:25:47;6.73;;;2.27;;
11655;SDS011;5884;43.618;1.438;2023-05-07T13:28:16;7.50;;;2.13;;
11655;SDS011;5884;43.618;1.438;2023-05-07T13:30:44;5.70;;;1.90;;
11655;SDS011;5884;43.618;1.438;2023-05-07T13:33:11;9.23;;;2.17;;
11655;SDS011;5884;43.618;1.438;2023-05-07T13:35:38;6.83;;;2.17;;
11655;SDS011;5884;43.618;1.438;2023-05-07T13:38:06;5.57;;;2.00;;
11655;SDS011;5884;43.618;1.438;2023-05-07T13:40:33;7.93;;;2.37;;
11655;SDS011;5884;43.618;1.438;2023-05-07T13:43:00;8.77;;;2.37;;
11655;SDS011;5884;43.618;1.438;2023-05-07T13:45:29;7.73;;;2.17;;
11655;SDS011;5884;43.618;1.438;2023-05-07T13:47:56;3.83;;;1.77;;
11655;SDS011;5884;43.618;1.438;2023-05-07T13:50:24;5.97;;;2.03;;
11655;SDS011;5884;43.618;1.438;2023-05-07T13:52:54;6.83;;;1.87;;
11655;SDS011;5884;43.618;1.438;2023-05-07T13:55:23;9.93;;;2.23;;
11655;SDS011;5884;43.618;1.438;2023-05-07T13:57:54;8.10;;;2.17;;
11655;SDS011;5884;43.618;1.438;2023-05-07T14:00:23;6.13;;;2.20;;
11655;SDS011;5884;43.618;1.438;2023-05-07T14:02:52;6.57;;;1.93;;
11655;SDS011;5884;43.618;1.438;2023-05-07T14:05:20;7.97;;;2.67;;
11655;SDS011;5884;43.618;1.438;2023-05-07T14:07:48;8.10;;;2.80;;
11655;SDS011;5884;43.618;1.438;2023-05-07T14:10:16;6.03;;;2.00;;
11655;SDS011;5884;43.618;1.438;2023-05-07T14:12:44;7.40;;;2.23;;
11655;SDS011;5884;43.618;1.438;2023-05-07T14:15:11;7.20;;;2.10;;
11655;SDS011;5884;43.618;1.438;2023-05-07T14:17:39;4.23;;;1.90;;
11655;SDS011;5884;43.618;1.438;2023-05-07T14:20:08;7.27;;;2.20;;
11655;SDS011;5884;43.618;1.438;2023-05-07T14:22:36;7.83;;;2.33;;
11655;SDS011;5884;43.618;1.438;2023-05-07T14:25:04;5.97;;;1.73;;
11655;SDS011;5884;43.618;1.438;2023-05-07T14:27:32;7.63;;;2.17;;
11655;SDS011;5884;43.618;1.438;2023-05-07T14:30:00;6.67;;;2.40;;
11655;SDS011;5884;43.618;1.438;2023-05-07T14:32:27;3.97;;;1.63;;
11655;SDS011;5884;43.618;1.438;2023-05-07T14:34:54;5.03;;;2.40;;
11655;SDS011;5884;43.618;1.438;2023-05-07T14:37:23;6.67;;;2.57;;
11655;SDS011;5884;43.618;1.438;2023-05-07T14:39:50;8.27;;;2.53;;
11655;SDS011;5884;43.618;1.438;2023-05-07T14:42:17;6.80;;;2.30;;
11655;SDS011;5884;43.618;1.438;2023-05-07T14:44:45;5.93;;;2.13;;
11655;SDS011;5884;43.618;1.438;2023-05-07T14:47:13;7.43;;;2.20;;
11655;SDS011;5884;43.618;1.438;2023-05-07T14:49:41;9.87;;;2.70;;
11655;SDS011;5884;43.618;1.438;2023-05-07T14:52:08;6.40;;;2.27;;
11655;SDS011;5884;43.618;1.438;2023-05-07T14:54:37;5.43;;;2.23;;
11655;SDS011;5884;43.618;1.438;2023-05-07T14:57:05;6.37;;;2.23;;
11655;SDS011;5884;43.618;1.438;2023-05-07T14:59:34;8.13;;;2.20;;
11655;SDS011;5884;43.618;1.438;2023-05-07T15:02:01;9.13;;;2.60;;
11655;SDS011;5884;43.618;1.438;2023-05-07T15:04:30;4.60;;;2.33;;
11655;SDS011;5884;43.618;1.438;2023-05-07T15:06:57;6.67;;;2.20;;
11655;SDS011;5884;43.618;1.438;2023-05-07T15:09:25;6.57;;;2.10;;
11655;SDS011;5884;43.618;1.438;2023-05-07T15:11:54;7.27;;;2.80;;
11655;SDS011;5884;43.618;1.438;2023-05-07T15:14:21;4.73;;;1.70;;
11655;SDS011;5884;43.618;1.438;2023-05-07T15:16:48;5.80;;;1.83;;
11655;SDS011;5884;43.618;1.438;2023-05-07T15:19:16;4.23;;;1.70;;
11655;SDS011;5884;43.618;1.438;2023-05-07T15:21:43;7.40;;;2.50;;
11655;SDS011;5884;43.618;1.438;2023-05-07T15:24:10;6.50;;;1.97;;
11655;SDS011;5884;43.618;1.438;2023-05-07T15:26:37;5.77;;;2.23;;
11655;SDS011;5884;43.618;1.438;2023-05-07T15:29:06;6.10;;;2.30;;
11655;SDS011;5884;43.618;1.438;2023-05-07T15:31:35;4.83;;;1.70;;
11655;SDS011;5884;43.618;1.438;2023-05-07T15:34:03;6.07;;;1.80;;
11655;SDS011;5884;43.618;1.438;2023-05-07T15:36:31;7.43;;;2.40;;
11655;SDS011;5884;43.618;1.438;2023-05-07T15:38:58;5.07;;;1.80;;
11655;SDS011;5884;43.618;1.438;2023-05-07T15:41:27;6.53;;;2.17;;
11655;SDS011;5884;43.618;1.438;2023-05-07T15:43:54;5.70;;;1.90;;
11655;SDS011;5884;43.618;1.438;2023-05-07T15:46:23;9.27;;;2.27;;
11655;SDS011;5884;43.618;1.438;2023-05-07T15:48:51;8.00;;;2.67;;
11655;SDS011;5884;43.618;1.438;2023-05-07T15:51:19;6.80;;;2.70;;
11655;SDS011;5884;43.618;1.438;2023-05-07T15:53:46;6.93;;;2.20;;
11655;SDS011;5884;43.618;1.438;2023-05-07T15:56:16;4.90;;;2.17;;
11655;SDS011;5884;43.618;1.438;2023-05-07T15:58:43;6.57;;;2.43;;
11655;SDS011;5884;43.618;1.438;2023-05-07T16:01:10;8.50;;;3.10;;
11655;SDS011;5884;43.618;1.438;2023-05-07T16:03:39;7.90;;;3.20;;
11655;SDS011;5884;43.618;1.438;2023-05-07T16:06:06;10.57;;;2.87;;
11655;SDS011;5884;43.618;1.438;2023-05-07T16:08:36;7.10;;;3.07;;
11655;SDS011;5884;43.618;1.438;2023-05-07T16:11:04;9.60;;;2.83;;
11655;SDS011;5884;43.618;1.438;2023-05-07T16:13:31;11.30;;;3.33;;
11655;SDS011;5884;43.618;1.438;2023-05-07T16:16:01;8.27;;;2.50;;
11655;SDS011;5884;43.618;1.438;2023-05-07T16:18:28;8.10;;;2.73;;
11655;SDS011;5884;43.618;1.438;2023-05-07T16:20:56;8.00;;;2.87;;
11655;SDS011;5884;43.618;1.438;2023-05-07T16:23:25;8.27;;;2.30;;
11655;SDS011;5884;43.618;1.438;2023-05-07T16:25:52;9.50;;;2.90;;
11655;SDS011;5884;43.618;1.438;2023-05-07T16:28:19;9.80;;;2.90;;
11655;SDS011;5884;43.618;1.438;2023-05-07T16:30:46;7.27;;;2.87;;
11655;SDS011;5884;43.618;1.438;2023-05-07T16:33:14;11.93;;;2.87;;
11655;SDS011;5884;43.618;1.438;2023-05-07T16:35:41;10.47;;;2.70;;
11655;SDS011;5884;43.618;1.438;2023-05-07T16:38:13;10.33;;;2.90;;
11655;SDS011;5884;43.618;1.438;2023-05-07T16:40:40;7.97;;;2.77;;
11655;SDS011;5884;43.618;1.438;2023-05-07T16:43:08;11.73;;;3.37;;
11655;SDS011;5884;43.618;1.438;2023-05-07T16:45:35;8.77;;;3.33;;
11655;SDS011;5884;43.618;1.438;2023-05-07T16:48:03;12.17;;;3.80;;
11655;SDS011;5884;43.618;1.438;2023-05-07T16:50:32;7.63;;;3.10;;
11655;SDS011;5884;43.618;1.438;2023-05-07T16:52:59;9.30;;;3.73;;
11655;SDS011;5884;43.618;1.438;2023-05-07T16:55:28;10.37;;;3.43;;
11655;SDS011;5884;43.618;1.438;2023-05-07T16:57:58;11.47;;;3.50;;
11655;SDS011;5884;43.618;1.438;2023-05-07T17:00:26;11.37;;;2.93;;
11655;SDS011;5884;43.618;1.438;2023-05-07T17:02:53;9.73;;;3.40;;
11655;SDS011;5884;43.618;1.438;2023-05-07T17:05:21;9.03;;;2.83;;
11655;SDS011;5884;43.618;1.438;2023-05-07T17:07:48;10.93;;;2.90;;
11655;SDS011;5884;43.618;1.438;2023-05-07T17:10:15;9.27;;;3.30;;
11655;SDS011;5884;43.618;1.438;2023-05-07T17:12:45;7.43;;;2.80;;
11655;SDS011;5884;43.618;1.438;2023-05-07T17:15:12;8.87;;;3.23;;
11655;SDS011;5884;43.618;1.438;2023-05-07T17:17:39;10.83;;;3.27;;
11655;SDS011;5884;43.618;1.438;2023-05-07T17:20:07;8.70;;;3.40;;
11655;SDS011;5884;43.618;1.438;2023-05-07T17:22:36;9.37;;;3.63;;
11655;SDS011;5884;43.618;1.438;2023-05-07T17:25:04;9.53;;;3.83;;
11655;SDS011;5884;43.618;1.438;2023-05-07T17:27:31;12.50;;;3.70;;
11655;SDS011;5884;43.618;1.438;2023-05-07T17:30:00;10.97;;;3.70;;
11655;SDS011;5884;43.618;1.438;2023-05-07T17:32:28;10.90;;;3.37;;
11655;SDS011;5884;43.618;1.438;2023-05-07T17:34:56;8.00;;;3.47;;
11655;SDS011;5884;43.618;1.438;2023-05-07T17:37:24;13.97;;;3.73;;
11655;SDS011;5884;43.618;1.438;2023-05-07T17:39:52;8.83;;;3.60;;
11655;SDS011;5884;43.618;1.438;2023-05-07T17:42:20;8.00;;;3.30;;
11655;SDS011;5884;43.618;1.438;2023-05-07T17:44:47;10.93;;;3.20;;
11655;SDS011;5884;43.618;1.438;2023-05-07T17:47:16;10.60;;;3.80;;
11655;SDS011;5884;43.618;1.438;2023-05-07T17:49:43;13.17;;;4.27;;
11655;SDS011;5884;43.618;1.438;2023-05-07T17:52:10;9.30;;;3.70;;
11655;SDS011;5884;43.618;1.438;2023-05-07T17:54:37;6.73;;;3.50;;
11655;SDS011;5884;43.618;1.438;2023-05-07T17:57:04;11.37;;;4.37;;
11655;SDS011;5884;43.618;1.438;2023-05-07T17:59:32;6.97;;;3.40;;
11655;SDS011;5884;43.618;1.438;2023-05-07T18:01:59;9.43;;;3.73;;
11655;SDS011;5884;43.618;1.438;2023-05-07T18:04:28;9.77;;;3.80;;
11655;SDS011;5884;43.618;1.438;2023-05-07T18:06:55;12.47;;;3.73;;
11655;SDS011;5884;43.618;1.438;2023-05-07T18:09:22;11.13;;;4.13;;
11655;SDS011;5884;43.618;1.438;2023-05-07T18:11:49;8.87;;;3.63;;
11655;SDS011;5884;43.618;1.438;2023-05-07T18:14:16;8.27;;;3.20;;
11655;SDS011;5884;43.618;1.438;2023-05-07T18:16:48;10.27;;;3.50;;
11655;SDS011;5884;43.618;1.438;2023-05-07T18:19:15;12.27;;;3.77;;
11655;SDS011;5884;43.618;1.438;2023-05-07T18:21:43;13.17;;;3.90;;
11655;SDS011;5884;43.618;1.438;2023-05-07T18:24:11;8.30;;;3.43;;
11655;SDS011;5884;43.618;1.438;2023-05-07T18:26:38;9.30;;;3.67;;
11655;SDS011;5884;43.618;1.438;2023-05-07T18:29:05;8.87;;;3.37;;
11655;SDS011;5884;43.618;1.438;2023-05-07T18:31:32;8.17;;;3.27;;
11655;SDS011;5884;43.618;1.438;2023-05-07T18:33:59;8.97;;;3.00;;
11655;SDS011;5884;43.618;1.438;2023-05-07T18:36:27;7.60;;;2.83;;
11655;SDS011;5884;43.618;1.438;2023-05-07T18:38:56;12.53;;;3.60;;
11655;SDS011;5884;43.618;1.438;2023-05-07T18:41:23;7.33;;;3.20;;
11655;SDS011;5884;43.618;1.438;2023-05-07T18:43:50;10.73;;;3.40;;
11655;SDS011;5884;43.618;1.438;2023-05-07T18:46:17;12.03;;;3.80;;
11655;SDS011;5884;43.618;1.438;2023-05-07T18:48:44;7.90;;;3.50;;
11655;SDS011;5884;43.618;1.438;2023-05-07T18:51:12;20.93;;;4.23;;
11655;SDS011;5884;43.618;1.438;2023-05-07T18:53:39;12.07;;;3.73;;
11655;SDS011;5884;43.618;1.438;2023-05-07T18:56:07;19.17;;;4.50;;
11655;SDS011;5884;43.618;1.438;2023-05-07T18:58:35;15.00;;;3.90;;
11655;SDS011;5884;43.618;1.438;2023-05-07T19:01:02;10.73;;;3.63;;
11655;SDS011;5884;43.618;1.438;2023-05-07T19:03:32;14.80;;;3.80;;
11655;SDS011;5884;43.618;1.438;2023-05-07T19:05:59;12.87;;;3.77;;
11655;SDS011;5884;43.618;1.438;2023-05-07T19:08:27;13.23;;;3.83;;
11655;SDS011;5884;43.618;1.438;2023-05-07T19:10:54;10.63;;;3.57;;
11655;SDS011;5884;43.618;1.438;2023-05-07T19:13:23;9.57;;;3.00;;
11655;SDS011;5884;43.618;1.438;2023-05-07T19:15:51;9.17;;;3.67;;
11655;SDS011;5884;43.618;1.438;2023-05-07T19:18:18;11.07;;;3.67;;
11655;SDS011;5884;43.618;1.438;2023-05-07T19:20:46;14.33;;;3.77;;
11655;SDS011;5884;43.618;1.438;2023-05-07T19:23:13;12.53;;;3.77;;
11655;SDS011;5884;43.618;1.438;2023-05-07T19:25:41;9.40;;;3.70;;
11655;SDS011;5884;43.618;1.438;2023-05-07T19:28:08;12.33;;;3.60;;
11655;SDS011;5884;43.618;1.438;2023-05-07T19:30:37;9.07;;;3.97;;
11655;SDS011;5884;43.618;1.438;2023-05-07T19:33:05;8.80;;;3.50;;
11655;SDS011;5884;43.618;1.438;2023-05-07T19:35:32;10.13;;;3.57;;
11655;SDS011;5884;43.618;1.438;2023-05-07T19:38:00;8.40;;;3.87;;
11655;SDS011;5884;43.618;1.438;2023-05-07T19:40:29;11.13;;;4.77;;
11655;SDS011;5884;43.618;1.438;2023-05-07T19:42:56;12.13;;;4.77;;
11655;SDS011;5884;43.618;1.438;2023-05-07T19:45:24;11.03;;;4.90;;
11655;SDS011;5884;43.618;1.438;2023-05-07T19:47:52;13.03;;;4.90;;
11655;SDS011;5884;43.618;1.438;2023-05-07T19:50:19;11.87;;;4.70;;
11655;SDS011;5884;43.618;1.438;2023-05-07T19:52:47;11.57;;;4.87;;
11655;SDS011;5884;43.618;1.438;2023-05-07T19:55:14;12.87;;;4.77;;